Flight Track Log - Related Links

Times and Time Zones

All times are in EDT time to prevent confusion due to time zone crossing. See the EJA328 flight status page for this flight to view local times or setup timezone preferences in your user account.

Time Position Orientation Groundspeed Altitude Reporting Facility
EDT Latitude Longitude Course Direction KTS MPH feet Rate Location/Type
Sun 08:06:48 PM 33.9981 -116.4266 323° Northwest 373 429 16,900  Level FlightAware ADS-B (KBNG)
Sun 08:07:24 PM 34.0555 -116.4780 323° Northwest 374 430 18,700 2,960 Climbing FlightAware ADS-B (KBNG)
Sun 08:08:03 PM 34.1123 -116.5240 336° Northwest 376 433 20,600 2,833 Climbing FlightAware ADS-B (KBNG)
Sun 08:08:36 PM 34.1669 -116.5454 342° North 381 438 22,100 2,000 Climbing FlightAware ADS-B (KBNG)
Sun 08:09:06 PM 34.2202 -116.5667 342° North 399 459 22,700 783 Climbing FlightAware ADS-B (KBNG)
Sun 08:09:45 PM 34.2899 -116.5944 342° North 427 491 23,000 205 Climbing FlightAware ADS-B (KBNG)
Sun 08:10:34 PM 34.3839 -116.6314 342° North 424 488 23,000 80 Level FlightAware ADS-B
Sun 08:11:00 PM 34.4305 -116.6548 330° Northwest 416 479 23,100 766 Climbing FlightAware ADS-B
Sun 08:11:21 PM 34.4606 -116.6869 312° West 414 476 23,600 -176 Climbing FlightAware ADS-B
Sun 08:11:34 PM 34.4723 -116.7061 300° West 411 473 23,000 1,610 Descending FlightAware ADS-B (KBNG)
Sun 08:12:02 PM 34.4932 -116.7710 281° West 406 467 24,700 2,816 Climbing FlightAware ADS-B
Sun 08:12:23 PM 34.4947 -116.8175 266° West 404 465 25,300 1,279 Climbing FlightAware ADS-B
Sun 08:13:03 PM 34.4894 -116.9091 267° West 413 475 26,000 1,000 Climbing FlightAware ADS-B
Sun 08:14:41 PM 34.4773 -117.1374 266° West 416 479 27,600 863 Climbing FlightAware ADS-B
Sun 08:15:29 PM 34.4707 -117.2499 266° West 423 487 28,100 1,121 Climbing FlightAware ADS-B
Sun 08:16:12 PM 34.4684 -117.3530 277° West 418 481 29,300 1,486 Climbing FlightAware ADS-B
Sun 08:17:14 PM 34.5135 -117.4864 306° West 425 489 30,700 1,484 Climbing FlightAware ADS-B
Sun 08:17:45 PM 34.5561 -117.5390 322° Northwest 431 496 31,600 1,475 Climbing FlightAware ADS-B
Sun 08:18:15 PM 34.6025 -117.5819 322° Northwest 427 491 32,200 1,406 Climbing FlightAware ADS-B
Sun 08:18:49 PM 34.6554 -117.6326 322° Northwest 424 488 33,100 1,350 Climbing FlightAware ADS-B
Sun 08:19:35 PM 34.7261 -117.6998 322° Northwest 422 486 34,000 621 Climbing FlightAware ADS-B
Sun 08:20:16 PM 34.7883 -117.7588 322° Northwest 419 482 34,000  Level FlightAware ADS-B
Sun 08:20:51 PM 34.8419 -117.8096 322° Northwest 417 480 34,000  Level FlightAware ADS-B
Sun 08:21:37 PM 34.9119 -117.8762 322° Northwest 415 478 34,000  Level FlightAware ADS-B
Sun 08:22:22 PM 34.9808 -117.9418 322° Northwest 415 478 34,000  Level FlightAware ADS-B
Sun 08:23:00 PM 35.0369 -117.9953 322° Northwest 415 478 34,000  Level FlightAware ADS-B
Sun 08:23:47 PM 35.1081 -118.0634 322° Northwest 415 478 34,000  Level FlightAware ADS-B
Sun 08:24:27 PM 35.1698 -118.1227 322° Northwest 417 480 34,000  Level FlightAware ADS-B
Sun 08:25:02 PM 35.2231 -118.1738 322° Northwest 417 480 34,000  Level FlightAware ADS-B
Sun 08:25:48 PM 35.2922 -118.2403 322° Northwest 418 481 34,000  Level FlightAware ADS-B
Sun 08:26:29 PM 35.3557 -118.3015 322° Northwest 419 482 34,000  Level FlightAware ADS-B
Sun 08:27:04 PM 35.4077 -118.3518 322° Northwest 421 484 34,000  Level FlightAware ADS-B
Sun 08:28:31 PM 35.5411 -118.4809 322° Northwest 421 484 34,000  Level FlightAware ADS-B
Sun 08:29:09 PM 35.6005 -118.5387 322° Northwest 421 484 34,000  Level FlightAware ADS-B
Sun 08:30:15 PM 35.6996 -118.6353 322° Northwest 419 482 34,000  Level FlightAware ADS-B
Sun 08:31:00 PM 35.7684 -118.7025 321° Northwest 413 475 34,000  Level FlightAware ADS-B
Sun 08:31:40 PM 35.8282 -118.7610 321° Northwest 411 473 34,000  Level FlightAware ADS-B
Sun 08:32:43 PM 35.9208 -118.8519 321° Northwest 407 468 34,000  Level FlightAware ADS-B
Sun 08:33:16 PM 35.9616 -118.8921 321° Northwest 406 467 34,000  Level FlightAware ADS-B
Sun 08:34:00 PM 36.0332 -118.9628 321° Northwest 404 465 34,000  Level FlightAware ADS-B
Sun 08:34:44 PM 36.0906 -119.0197 321° Northwest 408 470 34,000  Level Oakland Center
Sun 08:35:45 PM 36.1778 -119.1061 321° Northwest 406 467 34,000  Level Oakland Center
Sun 08:36:47 PM 36.2625 -119.1903 321° Northwest 399 459 34,000  Level Oakland Center
Sun 08:37:48 PM 36.3478 -119.2756 321° Northwest 395 455 34,000  Level Oakland Center
Sun 08:38:49 PM 36.4347 -119.3625 321° Northwest 401 461 34,000  Level Oakland Center
Sun 08:39:51 PM 36.5378 -119.4647 321° Northwest 397 457 34,000  Level Oakland Center
Sun 08:45:39 PM 37.0296 -119.9577 321° Northwest 407 468 34,000 -797 Level FlightAware ADS-B (KSAC)
Sun 08:48:38 PM 37.3092 -120.2338 321° Northwest 427 491 27,000 -2,443 Descending FlightAware ADS-B (KSAC)
Sun 08:49:20 PM 37.3727 -120.2970 321° Northwest 427 491 25,000 -2,889 Descending FlightAware ADS-B (KSAC)
Sun 08:49:59 PM 37.4345 -120.3585 321° Northwest 427 491 23,100 -2,625 Descending FlightAware ADS-B (KSAC)
Sun 08:50:40 PM 37.4937 -120.4175 321° Northwest 422 486 21,500 -2,033 Descending FlightAware ADS-B (KSAC)
Sun 08:52:00 PM 37.6104 -120.5343 321° Northwest 415 478 19,000 -1,750 Descending FlightAware ADS-B (KSAC)
Sun 08:52:40 PM 37.6715 -120.5957 321° Northwest 414 476 18,000 -1,200 Descending FlightAware ADS-B (KSAC)
Sun 08:53:20 PM 37.7350 -120.6596 321° Northwest 402 463 17,400 -1,837 Descending FlightAware ADS-B (KSAC)
Sun 08:53:29 PM 37.7682 -120.6930 321° Northwest 397 457 16,500 -2,512 Descending FlightAware ADS-B
Sun 08:54:03 PM 37.8169 -120.7420 321° Northwest 393 452 15,600 -1,500 Descending FlightAware ADS-B
Sun 08:54:33 PM 37.8600 -120.7860 321° Northwest 388 447 14,900 -333 Descending FlightAware ADS-B
Sun 08:54:39 PM 37.8500 -120.7757 321° Northwest 389 448 15,400 -652 Climbing FlightAware ADS-B (KSAC)
Sun 08:55:19 PM 37.9021 -120.8285 321° Northwest 386 444 14,400 -1,275 Descending FlightAware ADS-B (KSAC)
Sun 08:55:59 PM 37.9602 -120.8874 321° Northwest 387 445 13,700 -975 Descending FlightAware ADS-B (KSAC)
Sun 08:56:39 PM 38.0167 -120.9448 321° Northwest 382 440 13,100 -975 Descending FlightAware ADS-B (KSAC)
Sun 08:57:19 PM 38.0720 -121.0017 318° Northwest 370 426 12,400 -1,111 Descending FlightAware ADS-B (KSAC)
Sun 08:58:00 PM 38.1172 -121.0671 310° West 354 407 11,600 -1,407 Descending FlightAware ADS-B (KSAC)
Sun 08:58:40 PM 38.1599 -121.1296 310° West 320 368 10,500 -1,575 Descending FlightAware ADS-B (KSAC)
Sun 08:59:20 PM 38.1949 -121.1813 310° West 293 337 9,500 -1,500 Descending FlightAware ADS-B (KSAC)
Sun 08:59:40 PM 38.2124 -121.2072 310° West 288 331 9,000 -1,500 Descending FlightAware ADS-B (KSAC)
Sun 09:00:00 PM 38.2284 -121.2310 310° West 284 327 8,500 -1,385 Descending FlightAware ADS-B (KSAC)
Sun 09:00:19 PM 38.2451 -121.2557 310° West 280 322 8,100 -1,538 Descending FlightAware ADS-B (KSAC)
Sun 09:00:39 PM 38.2605 -121.2786 310° West 278 320 7,500 -1,500 Descending FlightAware ADS-B (KSAC)
Sun 09:00:59 PM 38.2805 -121.3083 310° West 280 322 7,100 -1,463 Descending FlightAware ADS-B (KSAC)
Sun 09:01:20 PM 38.2981 -121.3344 310° West 278 320 6,500 -1,571 Descending FlightAware ADS-B (KSAC)
Sun 09:01:41 PM 38.3149 -121.3594 310° West 277 319 6,000 -1,500 Descending FlightAware ADS-B (KSAC)
Sun 09:02:00 PM 38.3314 -121.3840 310° West 274 315 5,500 -1,263 Descending FlightAware ADS-B (KSAC)
Sun 09:02:19 PM 38.3469 -121.4072 310° West 261 300 5,200 -1,050 Descending FlightAware ADS-B (KSAC)
Sun 09:02:40 PM 38.3643 -121.4331 310° West 260 299 4,800 -878 Descending FlightAware ADS-B (KSAC)
Sun 09:03:00 PM 38.3792 -121.4552 310° West 261 300 4,600 -750 Descending FlightAware ADS-B (KSAC)
Sun 09:03:20 PM 38.3950 -121.4787 310° West 262 302 4,300 -615 Descending FlightAware ADS-B (KSAC)
Sun 09:03:39 PM 38.4087 -121.4991 310° West 258 297 4,200 -150 Descending FlightAware ADS-B (KSAC)
Sun 09:04:00 PM 38.4259 -121.5249 310° West 256 295 4,200  Level FlightAware ADS-B (KSAC)
Sun 09:04:19 PM 38.4414 -121.5475 314° West 253 291 4,200  Level FlightAware ADS-B (KSAC)
Sun 09:05:00 PM 38.4836 -121.5717 345° North 245 282 4,200 -393 Level FlightAware ADS-B (KSAC)
Sun 09:05:20 PM 38.5053 -121.5789 345° North 226 260 3,800 -1,350 Descending FlightAware ADS-B (KSAC)
Sun 09:05:40 PM 38.5253 -121.5854 345° North 219 252 3,300 -1,385 Descending FlightAware ADS-B (KSAC)
Sun 09:05:59 PM 38.5424 -121.5911 345° North 216 249 2,900 -1,463 Descending FlightAware ADS-B (KSAC)
Sun 09:06:21 PM 38.5640 -121.5982 345° North 213 245 2,300 -1,200 Descending FlightAware ADS-B (KSAC)
Sun 09:06:39 PM 38.5820 -121.6036 353° North 198 228 2,100 -724 Descending FlightAware ADS-B (KSAC)
Sun 09:07:19 PM 38.6150 -121.6025 360° North 154 177 1,600 -800 Descending FlightAware ADS-B (KSAC)
Sun 09:07:39 PM 38.6274 -121.6024 360° North 133 153 1,300 -732 Descending FlightAware ADS-B (KSAC)
Sun 09:08:00 PM 38.6401 -121.6022 360° North 120 138 1,100 -600 Descending FlightAware ADS-B (KSAC)
Sun 09:08:19 PM 38.6493 -121.6020 360° North 116 133 900 -600 Descending FlightAware ADS-B (KSAC)
Sun 09:08:40 PM 38.6614 -121.6019 360° North 119 137 700 -571 Descending FlightAware ADS-B (KSAC)
Sun 09:09:01 PM 38.6727 -121.6018 360° North 117 135 500 -571 Descending FlightAware ADS-B (KSAC)
Sun 09:17:00 PM 38.6833 -121.5833 46° Northeast  Level FlightAware Approximate
Sun 09:18:00 PM 38.6954 -121.5908 46° Northeast  Level Estimated

Login

Don't have an account? Register now (free) for customized features, flight alerts, and more!